Time;durP1;ratioP1;P1;durP2;ratioP2;P2;SDS_P1;SDS_P2;PMS_P1;PMS_P2;Temp;Humidity;BMP_temperature;BMP_pressure;BME280_temperature;BME280_humidity;BME280_pressure;Samples;Min_cycle;Max_cycle;Signal;HPM_P1;HPM_P2
2022/02/02 00:01:56;;;;;;;11.98;4.00;;;;;;;3.12;70.79;99055.81;4342592;32;34202;-81
2022/02/02 00:04:28;;;;;;;6.10;3.05;;;;;;;3.31;70.57;99051.84;4365706;32;34362;-81
2022/02/02 00:09:26;;;;;;;8.15;4.32;;;;;;;3.07;71.40;99050.72;4363004;32;32886;-82
2022/02/02 00:17:08;;;;;;;11.10;4.50;;;;;;;3.13;71.72;99040.13;4376138;32;34433;-82
2022/02/02 00:19:53;;;;;;;7.05;3.75;;;;;;;3.89;68.84;99018.91;4363151;32;34422;-82
2022/02/02 00:22:27;;;;;;;12.90;4.55;;;;;;;3.06;72.22;99025.53;4364003;32;33419;-82
2022/02/02 00:25:11;;;;;;;8.43;4.53;;;;;;;3.04;72.32;99019.53;4363196;32;33766;-81
2022/02/02 00:27:41;;;;;;;9.85;4.12;;;;;;;2.94;71.97;99018.87;4362494;32;33595;-82
2022/02/02 00:30:13;;;;;;;8.48;3.75;;;;;;;2.76;73.40;99021.97;4362585;32;34267;-81
2022/02/02 00:35:33;;;;;;;9.27;4.68;;;;;;;2.75;73.68;99010.69;4375560;32;33713;-81
2022/02/02 00:38:01;;;;;;;12.37;4.82;;;;;;;2.65;74.36;99000.50;4361895;32;34276;-80
2022/02/02 00:40:33;;;;;;;7.45;4.05;;;;;;;2.39;75.08;99011.56;4375410;32;34037;-81
2022/02/02 00:43:01;;;;;;;7.32;4.07;;;;;;;2.81;74.06;98992.28;4362327;32;33334;-80
2022/02/02 00:45:42;;;;;;;8.63;4.97;;;;;;;2.63;74.14;98992.72;4363264;32;34662;-81
2022/02/02 00:48:11;;;;;;;8.45;4.47;;;;;;;2.53;75.07;98996.44;4375501;32;33811;-80
2022/02/02 00:50:39;;;;;;;8.57;4.10;;;;;;;2.69;74.42;98982.13;4355258;32;34084;-80
2022/02/02 00:53:07;;;;;;;6.85;4.22;;;;;;;2.76;73.50;98983.72;4373653;32;34146;-80
2022/02/02 00:55:39;;;;;;;10.45;4.55;;;;;;;2.12;76.38;98980.03;4351890;32;33179;-81
2022/02/02 00:58:06;;;;;;;8.15;4.07;;;;;;;1.89;77.60;98972.72;4373563;32;34745;-81
2022/02/02 01:00:34;;;;;;;14.80;3.87;;;;;;;1.97;77.77;98968.22;4363017;32;33079;-81
2022/02/02 01:03:02;;;;;;;10.43;3.87;;;;;;;2.24;76.59;98961.53;4362578;32;32914;-81
2022/02/02 01:05:30;;;;;;;6.72;4.05;;;;;;;1.89;78.45;98956.25;4358957;32;33647;-81
2022/02/02 01:08:40;;;;;;;7.50;3.22;;;;;;;2.09;77.54;98964.50;4361669;32;34108;-81
2022/02/02 01:11:12;;;;;;;5.20;3.20;;;;;;;2.03;77.85;98955.03;4365130;32;32130;-80
2022/02/02 01:14:34;;;;;;;8.15;3.53;;;;;;;2.11;77.64;98952.28;4374794;32;32516;-81
2022/02/02 01:19:13;;;;;;;10.27;3.40;;;;;;;1.96;78.13;98939.63;4350166;32;32989;-81
2022/02/02 01:22:16;;;;;;;5.90;3.03;;;;;;;2.37;76.91;98925.59;4359065;32;33648;-81
2022/02/02 01:30:06;;;;;;;7.22;3.17;;;;;;;2.20;77.24;98917.34;4374440;32;34455;-81
2022/02/02 01:32:34;;;;;;;4.68;2.90;;;;;;;2.83;75.06;98916.63;4374569;32;32833;-81
2022/02/02 01:35:04;;;;;;;11.32;4.05;;;;;;;2.32;76.89;98904.00;4361791;32;33110;-81
2022/02/02 01:37:33;;;;;;;5.20;2.83;;;;;;;2.05;77.68;98908.16;4358144;32;34102;-81
2022/02/02 01:40:10;;;;;;;8.95;3.72;;;;;;;2.25;77.12;98902.47;4356439;32;34424;-81
2022/02/02 01:42:47;;;;;;;6.22;3.70;;;;;;;2.42;77.00;98904.63;4360117;32;32434;-82
2022/02/02 01:45:23;;;;;;;8.50;4.30;;;;;;;2.72;75.73;98908.22;4355664;32;33364;-81
2022/02/02 01:48:09;;;;;;;6.87;3.83;;;;;;;3.18;73.72;98902.63;4373054;32;32716;-81
2022/02/02 01:55:38;;;;;;;9.00;3.90;;;;;;;3.02;74.02;98896.13;4372769;32;32249;-81
2022/02/02 01:58:26;;;;;;;9.75;3.95;;;;;;;2.65;75.23;98902.31;4360994;32;33400;-82
2022/02/02 02:00:55;;;;;;;8.25;3.95;;;;;;;3.15;73.48;98894.88;4360537;32;34068;-81
2022/02/02 02:03:23;;;;;;;9.27;4.47;;;;;;;3.02;73.99;98891.75;4360914;32;33196;-81
2022/02/02 02:05:51;;;;;;;10.45;5.10;;;;;;;2.80;74.20;98894.09;4362726;32;34309;-81
2022/02/02 02:08:18;;;;;;;13.13;4.60;;;;;;;3.18;73.27;98884.38;4375645;32;33899;-81
2022/02/02 02:10:46;;;;;;;10.05;4.72;;;;;;;3.41;72.56;98878.47;4376545;32;33392;-81
2022/02/02 02:13:31;;;;;;;8.30;3.85;;;;;;;3.85;70.30;98874.53;4350925;32;32928;-81
2022/02/02 02:15:59;;;;;;;10.75;4.00;;;;;;;3.60;71.30;98876.16;4363174;32;32787;-81
2022/02/02 02:18:26;;;;;;;7.78;4.25;;;;;;;3.26;72.68;98869.31;4364169;32;34363;-81
2022/02/02 02:20:55;;;;;;;7.70;4.10;;;;;;;3.52;71.92;98867.72;4351258;32;34044;-81
2022/02/02 02:23:24;;;;;;;7.50;4.15;;;;;;;4.17;68.96;98864.78;4372364;32;32798;-81
2022/02/02 02:25:52;;;;;;;8.68;4.57;;;;;;;4.14;69.49;98862.28;4373368;32;31964;-81
2022/02/02 02:28:41;;;;;;;8.60;4.53;;;;;;;3.81;70.39;98865.06;4363168;32;34222;-81
2022/02/02 02:58:08;;;;;;;9.55;4.05;;;;;;;4.52;68.02;98839.25;4376256;32;33918;-82
2022/02/02 03:59:44;;;;;;;8.18;3.95;;;;;;;4.76;66.59;98803.53;4358523;32;33356;-81
2022/02/02 04:02:28;;;;;;;12.98;3.33;;;;;;;4.90;66.60;98806.50;4342106;32;32404;-81
2022/02/02 04:07:47;;;;;;;10.63;3.75;;;;;;;4.59;67.68;98799.75;4358129;32;34056;-81
2022/02/02 04:10:15;;;;;;;;;;;;;;;4.92;66.95;98794.22;4340597;32;33267;-81
2022/02/02 04:37:46;;;;;;;4.62;2.28;;;;;;;5.28;66.24;98783.28;4373682;32;32786;-82
2022/02/02 04:59:35;;;;;;;6.80;3.37;;;;;;;4.94;66.86;98783.69;4363184;32;32962;-82
2022/02/02 05:05:37;;;;;;;5.22;3.37;;;;;;;5.08;66.54;98792.75;4351493;32;32103;-82
2022/02/02 05:07:52;;;;;;;7.20;4.10;;;;;;;4.95;66.92;98781.03;4359181;32;33012;-83
2022/02/02 05:21:36;;;;;;;6.47;2.90;;;;;;;5.05;66.77;98777.16;4351829;32;32733;-82
2022/02/02 05:28:20;;;;;;;9.27;3.37;;;;;;;4.91;67.14;98770.72;4373554;32;33078;-82
2022/02/02 05:51:23;;;;;;;6.70;3.60;;;;;;;5.24;67.74;98755.53;4355365;32;32053;-82
2022/02/02 05:53:52;;;;;;;5.80;2.40;;;;;;;5.20;68.21;98749.53;4365719;32;32889;-82
2022/02/02 05:56:20;;;;;;;3.05;2.20;;;;;;;5.33;67.90;98748.16;4341601;32;33628;-82
2022/02/02 05:58:48;;;;;;;8.38;2.28;;;;;;;5.18;68.81;98743.53;4369348;32;33767;-83
2022/02/02 06:01:16;;;;;;;2.97;1.73;;;;;;;5.27;68.37;98745.78;4343004;32;33148;-82
2022/02/02 06:04:00;;;;;;;3.83;1.80;;;;;;;5.27;68.60;98745.78;4341810;32;33070;-82
2022/02/02 06:06:27;;;;;;;3.53;1.90;;;;;;;4.98;69.25;98759.13;4359028;32;32347;-83
2022/02/02 06:08:56;;;;;;;7.40;1.55;;;;;;;5.17;68.72;98749.66;4348205;32;32891;-82
2022/02/02 06:11:25;;;;;;;4.68;2.15;;;;;;;5.30;68.58;98745.66;4351244;32;34166;-82
2022/02/02 06:13:56;;;;;;;4.95;1.83;;;;;;;5.49;67.59;98739.69;4344980;32;33741;-82
2022/02/02 06:16:27;;;;;;;5.35;1.92;;;;;;;5.22;68.37;98752.97;4352347;32;33124;-83
2022/02/02 06:18:56;;;;;;;3.25;1.73;;;;;;;5.28;68.49;98747.50;4341824;32;32682;-82
2022/02/02 06:21:36;;;;;;;4.28;1.75;;;;;;;5.13;68.76;98753.31;4353035;32;32328;-82
2022/02/02 06:24:10;;;;;;;2.97;2.22;;;;;;;5.23;68.63;98762.53;4367645;32;35095;-83
2022/02/02 06:26:47;;;;;;;7.78;1.90;;;;;;;5.24;68.51;98766.84;4354525;32;33407;-83
2022/02/02 06:29:16;;;;;;;8.63;2.60;;;;;;;5.62;66.89;98762.72;4338282;32;34022;-82
2022/02/02 06:31:44;;;;;;;4.60;2.03;;;;;;;5.12;68.38;98783.00;4340888;32;34123;-81
2022/02/02 06:34:14;;;;;;;5.32;2.20;;;;;;;5.13;68.80;98784.72;4371780;32;33987;-85
2022/02/02 06:36:42;;;;;;;5.68;2.12;;;;;;;5.50;67.70;98784.13;4359445;32;33664;-84
2022/02/02 06:39:11;;;;;;;7.05;2.17;;;;;;;5.57;67.35;98775.13;4355775;32;33226;-85
2022/02/02 06:41:39;;;;;;;4.97;2.40;;;;;;;5.37;68.17;98780.31;4358221;32;32760;-85
2022/02/02 06:44:07;;;;;;;7.43;2.72;;;;;;;5.75;66.68;98784.03;4351404;32;34479;-84
2022/02/02 06:46:39;;;;;;;5.15;2.35;;;;;;;5.86;66.04;98794.06;4362277;32;33597;-83
2022/02/02 06:49:08;;;;;;;9.15;2.45;;;;;;;5.78;65.88;98801.38;4374129;32;31976;-84
2022/02/02 06:51:50;;;;;;;3.75;1.98;;;;;;;5.81;65.91;98811.75;4363619;32;34267;-84
2022/02/02 06:54:28;;;;;;;;;;;;;;;5.84;65.91;98817.72;4352641;32;32848;-84
2022/02/02 06:57:15;;;;;;;3.17;1.77;;;;;;;5.70;66.22;98817.41;4364350;32;35398;-84
2022/02/02 07:02:33;;;;;;;10.40;1.92;;;;;;;5.76;66.46;98822.41;4363266;32;32497;-84
2022/02/02 07:05:20;;;;;;;4.30;2.40;;;;;;;5.94;65.86;98820.00;4363881;32;34041;-84
2022/02/02 07:08:35;;;;;;;5.87;2.50;;;;;;;5.85;66.25;98806.31;4353217;32;33791;-84
2022/02/02 07:11:27;;;;;;;6.82;2.17;;;;;;;5.88;66.37;98815.81;4352610;32;32754;-84
2022/02/02 07:16:55;;;;;;;;;;;;;;;5.79;66.39;98803.97;4352670;32;33048;-84
2022/02/02 07:19:38;;;;;;;4.78;1.70;;;;;;;6.18;65.56;98798.03;4353102;32;33409;-85
2022/02/02 07:32:44;;;;;;;2.47;1.75;;;;;;;6.52;64.99;98804.47;4346791;32;31733;-85
2022/02/02 07:35:22;;;;;;;4.82;1.50;;;;;;;6.64;64.46;98812.63;4340723;32;33883;-85
2022/02/02 07:38:08;;;;;;;2.95;1.33;;;;;;;6.07;66.35;98818.56;4319239;32;32950;-85
2022/02/02 07:40:41;;;;;;;5.85;1.67;;;;;;;6.33;66.06;98826.22;4346713;32;33380;-84
2022/02/02 07:43:09;;;;;;;;;;;;;;;6.59;64.88;98825.09;4347009;32;33515;-84
2022/02/02 07:45:36;;;;;;;4.07;1.90;;;;;;;6.17;65.62;98843.47;4334224;32;33844;-85
2022/02/02 07:48:06;;;;;;;3.17;1.45;;;;;;;6.28;65.65;98845.69;4336106;32;34585;-84
2022/02/02 07:50:34;;;;;;;3.95;1.92;;;;;;;6.15;66.34;98843.53;4321044;32;32671;-84
2022/02/02 07:53:08;;;;;;;6.12;2.15;;;;;;;6.30;65.00;98844.69;4338595;32;32850;-84
2022/02/02 07:55:38;;;;;;;6.78;1.65;;;;;;;6.36;64.60;98854.06;4351978;32;31923;-85
2022/02/02 07:58:07;;;;;;;3.97;1.83;;;;;;;6.22;65.50;98854.66;4331257;32;34392;-84
2022/02/02 08:00:36;;;;;;;3.10;2.03;;;;;;;6.05;66.18;98857.09;4352762;32;33354;-85
2022/02/02 08:03:12;;;;;;;2.42;1.62;;;;;;;6.64;64.64;98848.50;4338001;32;31736;-84
2022/02/02 08:05:45;;;;;;;5.32;1.62;;;;;;;6.76;64.08;98852.38;4340312;32;32796;-84
2022/02/02 08:10:49;;;;;;;5.53;1.73;;;;;;;7.10;61.95;98854.38;4338415;32;31713;-84
2022/02/02 08:15:55;;;;;;;2.35;1.40;;;;;;;6.65;63.58;98861.56;4340108;32;33495;-85
2022/02/02 08:18:23;;;;;;;2.35;1.35;;;;;;;6.86;63.43;98862.41;4341897;32;33621;-85
2022/02/02 08:20:51;;;;;;;3.97;2.03;;;;;;;6.81;63.90;98868.78;4326436;32;34234;-84
2022/02/02 08:23:18;;;;;;;2.83;1.45;;;;;;;7.09;62.79;98858.78;4342894;32;32896;-85
2022/02/02 08:25:46;;;;;;;5.43;1.85;;;;;;;7.30;62.02;98862.19;4328696;32;34442;-85
2022/02/02 08:28:17;;;;;;;4.57;1.70;;;;;;;7.19;62.63;98860.06;4351658;32;33614;-84
2022/02/02 08:30:46;;;;;;;4.57;1.55;;;;;;;6.97;63.52;98868.94;4350253;32;34404;-85
2022/02/02 08:33:19;;;;;;;2.87;2.15;;;;;;;7.22;62.77;98861.72;4353630;32;34090;-85
2022/02/02 08:35:53;;;;;;;2.55;1.20;;;;;;;7.08;63.36;98851.81;4339182;32;33182;-84
2022/02/02 08:41:04;;;;;;;4.47;1.57;;;;;;;7.27;62.82;98836.09;4335474;32;32935;-85
2022/02/02 08:43:47;;;;;;;7.62;1.37;;;;;;;7.10;63.68;98839.47;4343026;32;32945;-85
2022/02/02 08:46:29;;;;;;;3.12;1.55;;;;;;;7.06;63.77;98834.44;4338984;32;32904;-84
2022/02/02 08:48:58;;;;;;;1.90;1.20;;;;;;;6.92;64.56;98822.75;4316843;32;32786;-85
2022/02/02 08:51:30;;;;;;;2.95;1.10;;;;;;;7.01;64.82;98825.91;4338374;32;32307;-85
2022/02/02 08:54:09;;;;;;;0.95;0.85;;;;;;;6.84;64.98;98819.66;4351496;32;33835;-84
2022/02/02 08:59:10;;;;;;;3.67;1.10;;;;;;;6.87;65.42;98826.53;4334178;32;32750;-85
2022/02/02 09:01:38;;;;;;;2.28;1.15;;;;;;;7.07;64.42;98825.63;4349371;32;34774;-85
2022/02/02 09:06:52;;;;;;;2.22;1.23;;;;;;;7.49;63.84;98816.69;4348271;32;33078;-85
2022/02/02 09:09:24;;;;;;;2.58;0.82;;;;;;;7.30;64.98;98827.22;4326084;32;33779;-85
2022/02/02 09:20:22;;;;;;;5.53;1.08;;;;;;;7.69;63.59;98840.25;4338298;32;33605;-85
2022/02/02 09:25:55;;;;;;;1.15;0.60;;;;;;;7.66;63.61;98815.00;4351910;32;33824;-86
2022/02/02 09:34:06;;;;;;;1.55;0.88;;;;;;;8.00;61.67;98836.19;4363854;32;34112;-87
2022/02/02 09:36:37;;;;;;;1.75;0.90;;;;;;;7.99;62.32;98837.09;4361184;32;32047;-86
2022/02/02 09:39:12;;;;;;;2.47;0.70;;;;;;;8.02;62.85;98836.94;4365338;32;33352;-85
2022/02/02 09:41:50;;;;;;;1.77;0.75;;;;;;;8.34;61.15;98838.00;4353886;32;35898;-85
2022/02/02 09:44:23;;;;;;;4.30;1.00;;;;;;;8.77;59.72;98841.97;4350076;32;32382;-85
2022/02/02 09:47:02;;;;;;;1.65;0.65;;;;;;;8.85;59.38;98837.16;4353951;32;32914;-86
2022/02/02 09:49:39;;;;;;;1.85;1.08;;;;;;;9.03;59.34;98837.13;4364690;32;34330;-84
2022/02/02 09:52:14;;;;;;;3.42;1.10;;;;;;;9.10;59.42;98831.44;4351903;32;33300;-84
2022/02/02 09:55:07;;;;;;;0.82;0.40;;;;;;;9.24;57.98;98825.44;4353371;32;33748;-84
2022/02/02 09:58:55;;;;;;;1.40;0.68;;;;;;;9.35;57.05;98828.38;4369857;32;32869;-82
2022/02/02 10:06:23;;;;;;;2.05;0.55;;;;;;;9.09;57.20;98826.28;4339468;32;32769;-82
2022/02/02 10:14:35;;;;;;;2.45;0.60;;;;;;;9.40;56.02;98830.72;4353070;32;33705;-83
2022/02/02 10:17:08;;;;;;;3.47;0.52;;;;;;;9.71;55.01;98822.84;4354798;32;34219;-82
2022/02/02 10:19:37;;;;;;;3.05;0.45;;;;;;;9.62;55.66;98830.41;4343355;32;33348;-82
2022/02/02 10:22:29;;;;;;;0.95;0.40;;;;;;;9.34;56.09;98824.00;4350497;32;33612;-83
2022/02/02 10:25:00;;;;;;;2.08;0.43;;;;;;;9.73;54.10;98823.62;4377484;32;33796;-82
2022/02/02 10:27:34;;;;;;;1.60;0.60;;;;;;;9.66;54.87;98818.78;4355174;32;33159;-82
2022/02/02 10:30:16;;;;;;;3.65;0.50;;;;;;;9.72;55.69;98818.41;4343302;32;32461;-83
2022/02/02 10:32:49;;;;;;;2.95;0.47;;;;;;;10.11;53.66;98811.81;4358444;32;32163;-82
2022/02/02 10:35:36;;;;;;;4.87;0.80;;;;;;;10.37;51.43;98813.84;4370209;32;34381;-83
2022/02/02 10:38:21;;;;;;;2.15;0.37;;;;;;;10.46;52.27;98826.50;4349092;32;34141;-82
2022/02/02 10:43:28;;;;;;;2.47;0.55;;;;;;;11.00;48.99;98816.19;4368981;32;33559;-83
2022/02/02 10:45:56;;;;;;;3.12;0.40;;;;;;;10.38;50.58;98826.09;4368994;32;32948;-82
2022/02/02 10:48:34;;;;;;;2.60;0.40;;;;;;;10.54;50.01;98833.09;4356992;32;33770;-82
2022/02/02 10:51:09;;;;;;;6.25;0.70;;;;;;;10.66;49.65;98841.16;4369492;32;33440;-82
2022/02/02 10:54:02;;;;;;;3.87;0.57;;;;;;;10.42;52.50;98846.09;4357195;32;33238;-82
2022/02/02 11:10:28;;;;;;;3.70;0.40;;;;;;;9.58;50.85;98852.59;4359288;32;33117;-84
2022/02/02 11:12:57;;;;;;;1.55;0.88;;;;;;;9.44;52.94;98862.09;4365663;32;33349;-84
2022/02/02 11:15:35;;;;;;;4.35;0.50;;;;;;;9.50;51.82;98860.94;4360051;32;32801;-84
2022/02/02 11:18:21;;;;;;;6.30;0.68;;;;;;;9.85;50.62;98847.59;4356244;32;33151;-85
2022/02/02 11:20:48;;;;;;;2.10;0.40;;;;;;;9.49;52.46;98859.22;4364349;32;33365;-84
2022/02/02 11:23:19;;;;;;;6.78;0.60;;;;;;;9.87;50.51;98854.47;4368446;32;33130;-85
2022/02/02 11:26:00;;;;;;;3.85;0.65;;;;;;;9.67;50.41;98860.00;4364827;32;31559;-84
2022/02/02 11:28:35;;;;;;;1.98;0.50;;;;;;;9.86;48.77;98846.66;4350617;32;34846;-84
2022/02/02 11:31:05;;;;;;;6.47;0.93;;;;;;;10.17;50.30;98837.88;4355511;32;32401;-84
2022/02/02 11:33:53;;;;;;;2.75;0.50;;;;;;;10.65;48.20;98839.47;4369802;32;32153;-85
2022/02/02 11:36:35;;;;;;;3.17;0.50;;;;;;;10.58;48.12;98846.03;4349583;32;32600;-85
2022/02/02 11:39:07;;;;;;;3.75;0.50;;;;;;;10.40;48.92;98839.22;4342075;32;31407;-84
2022/02/02 11:46:41;;;;;;;5.03;0.80;;;;;;;11.09;46.16;98813.94;4355100;32;33902;-84
2022/02/02 11:49:34;;;;;;;2.65;0.73;;;;;;;11.00;47.09;98810.91;4338636;32;32996;-84
2022/02/02 11:52:03;;;;;;;2.55;0.62;;;;;;;10.83;46.98;98808.47;4354628;32;33265;-84
2022/02/02 11:54:31;;;;;;;1.65;0.50;;;;;;;10.74;47.57;98811.66;4340368;32;33406;-84
2022/02/02 11:57:11;;;;;;;1.90;0.40;;;;;;;10.99;47.23;98795.19;4341602;32;32480;-84
2022/02/02 12:00:20;;;;;;;1.20;0.45;;;;;;;10.98;49.14;98815.47;4366917;32;34337;-84
2022/02/02 12:06:01;;;;;;;4.75;1.05;;;;;;;11.16;47.61;98823.22;4368725;32;32962;-84
2022/02/02 12:08:46;;;;;;;3.62;0.90;;;;;;;11.18;48.97;98821.31;4361538;32;33895;-84
2022/02/02 12:58:00;;;;;;;0.95;0.50;;;;;;;10.83;48.46;98895.63;4361823;32;34437;-84
2022/02/02 13:00:51;;;;;;;0.65;0.20;;;;;;;11.03;47.12;98891.78;4362247;32;34062;-84
2022/02/02 13:03:19;;;;;;;3.67;0.65;;;;;;;11.25;46.72;98886.03;4359326;32;33043;-84
2022/02/02 13:05:49;;;;;;;0.37;0.37;;;;;;;11.09;47.08;98901.13;4362343;32;35282;-84
2022/02/02 13:08:19;;;;;;;1.30;0.65;;;;;;;10.33;49.12;98901.19;4360435;32;32694;-84
2022/02/02 13:10:49;;;;;;;1.70;0.57;;;;;;;10.51;47.81;98905.41;4335076;32;33945;-84
2022/02/02 13:13:23;;;;;;;3.10;0.57;;;;;;;9.81;49.83;98910.19;4373804;32;34104;-84
2022/02/02 13:16:01;;;;;;;4.37;0.73;;;;;;;9.77;49.36;98919.19;4349025;32;33600;-84
2022/02/02 13:18:37;;;;;;;5.37;0.70;;;;;;;9.90;48.93;98922.88;4338281;32;33796;-84
2022/02/02 13:26:27;;;;;;;0.70;0.40;;;;;;;9.43;48.52;98928.91;4356596;32;32729;-84
2022/02/02 13:32:00;;;;;;;1.20;0.57;;;;;;;9.58;49.44;98929.03;4349794;32;33197;-84
2022/02/02 13:51:30;;;;;;;6.78;1.45;;;;;;;10.06;47.92;98946.59;4357194;32;32922;-84
2022/02/02 13:54:30;;;;;;;4.97;0.80;;;;;;;9.78;49.00;98952.56;4360700;32;32018;-86
2022/02/02 13:59:54;;;;;;;5.78;0.88;;;;;;;9.70;48.18;98941.56;4360113;32;34531;-86
2022/02/02 14:32:12;;;;;;;6.93;1.52;;;;;;;9.41;46.13;98980.00;4348639;32;32299;-85
2022/02/02 14:34:59;;;;;;;0.85;0.50;;;;;;;9.15;48.01;98989.22;4361000;32;33174;-85
2022/02/02 14:37:38;;;;;;;1.25;0.80;;;;;;;9.11;48.17;99008.75;4375453;32;32912;-85
2022/02/02 14:40:33;;;;;;;1.15;0.40;;;;;;;9.41;47.35;99001.94;4364694;32;33223;-85
2022/02/02 14:43:04;;;;;;;5.10;0.80;;;;;;;9.39;47.01;99019.56;4361617;32;32908;-85
2022/02/02 14:45:36;;;;;;;2.83;0.62;;;;;;;9.39;47.49;99021.38;4363251;32;34650;-85
2022/02/02 14:48:11;;;;;;;2.00;0.70;;;;;;;9.40;47.93;99020.44;4363146;32;32437;-85
2022/02/02 14:50:54;;;;;;;4.40;1.05;;;;;;;9.26;48.54;99026.44;4375855;32;33007;-85
2022/02/02 14:53:54;;;;;;;4.75;1.27;;;;;;;9.44;47.78;99029.88;4355467;32;33205;-85
2022/02/02 15:05:32;;;;;;;4.35;1.10;;;;;;;9.40;47.45;99037.12;4365688;32;33154;-84
2022/02/02 15:29:56;;;;;;;2.45;1.10;;;;;;;8.94;47.21;99054.34;4342295;32;32216;-85
2022/02/02 15:32:26;;;;;;;1.65;0.73;;;;;;;8.60;47.91;99055.97;4357057;32;32780;-85
2022/02/02 15:34:57;;;;;;;2.40;1.15;;;;;;;8.45;48.41;99056.69;4361050;32;33449;-85
2022/02/02 15:37:33;;;;;;;1.98;1.00;;;;;;;8.57;47.89;99065.78;4355342;32;33148;-85
2022/02/02 15:40:11;;;;;;;4.10;0.82;;;;;;;8.76;47.85;99063.13;4344390;32;33341;-85
2022/02/02 15:59:19;;;;;;;2.97;1.20;;;;;;;8.57;48.66;99105.25;4355930;32;32539;-85
2022/02/02 16:04:31;;;;;;;3.42;0.90;;;;;;;8.33;49.33;99120.38;4355110;32;32635;-85
2022/02/02 16:07:03;;;;;;;4.70;1.33;;;;;;;8.49;49.06;99128.44;4352418;32;33116;-85
2022/02/02 16:12:11;;;;;;;4.90;1.45;;;;;;;8.29;49.46;99140.69;4369511;32;35102;-85
2022/02/02 16:14:44;;;;;;;4.50;1.62;;;;;;;8.50;48.83;99151.19;4357396;32;32507;-86
2022/02/02 16:36:38;;;;;;;2.90;0.68;;;;;;;7.44;54.05;99193.37;4357587;32;32331;-85
2022/02/02 16:39:11;;;;;;;1.33;0.50;;;;;;;7.27;54.38;99192.37;4354763;32;33007;-85
2022/02/02 16:44:25;;;;;;;1.17;0.75;;;;;;;7.35;54.27;99203.41;4356258;32;33239;-86
2022/02/02 16:46:53;;;;;;;2.05;0.80;;;;;;;7.21;54.81;99203.94;4344381;32;31950;-85
2022/02/02 16:49:21;;;;;;;1.73;1.05;;;;;;;7.43;54.03;99207.44;4355660;32;32191;-85
2022/02/02 16:51:48;;;;;;;1.33;0.70;;;;;;;7.50;54.23;99212.44;4345062;32;32972;-85
2022/02/02 16:54:42;;;;;;;3.75;1.00;;;;;;;7.27;55.12;99216.84;4342849;32;33579;-86
2022/02/02 16:57:21;;;;;;;2.45;1.10;;;;;;;7.22;55.34;99234.56;4345708;32;34184;-85
2022/02/02 17:33:04;;;;;;;1.92;0.52;;;;;;;7.42;53.94;99299.44;4358021;32;32878;-85
2022/02/02 17:40:59;;;;;;;3.37;1.10;;;;;;;7.24;54.54;99316.75;4344578;32;31942;-85
2022/02/02 18:19:07;;;;;;;4.07;0.68;;;;;;;7.37;55.38;99354.75;4360022;32;32967;-86
2022/02/02 18:21:16;;;;;;;4.30;1.25;;;;;;;7.37;55.31;99361.78;4350411;32;33657;-85
2022/02/02 18:26:31;;;;;;;8.30;1.52;;;;;;;6.90;56.04;99362.63;4363330;32;33021;-85
2022/02/02 18:29:09;;;;;;;2.12;1.08;;;;;;;7.00;55.21;99367.53;4364714;32;32683;-86
2022/02/02 18:34:49;;;;;;;6.12;1.40;;;;;;;7.19;53.67;99371.19;4335607;32;33072;-85
2022/02/02 18:39:03;;;;;;;2.37;1.12;;;;;;;7.01;54.66;99369.25;4359170;32;33734;-85
2022/02/02 18:46:22;;;;;;;3.10;1.33;;;;;;;7.39;53.03;99408.09;4344568;32;32166;-85
2022/02/02 18:48:52;;;;;;;9.95;1.42;;;;;;;7.04;53.98;99395.41;4344338;32;33486;-85
2022/02/02 18:54:17;;;;;;;3.83;1.10;;;;;;;7.09;53.97;99414.47;4349407;32;33423;-84
2022/02/02 19:02:05;;;;;;;2.17;0.80;;;;;;;7.33;53.71;99407.47;4345390;32;34301;-84
2022/02/02 19:07:31;;;;;;;5.40;2.65;;;;;;;7.30;54.13;99425.94;4343508;32;33159;-85
2022/02/02 20:12:39;;;;;;;5.40;1.75;;;;;;;6.71;56.06;99490.13;4338966;32;33219;-85
2022/02/02 20:15:10;;;;;;;5.75;1.80;;;;;;;6.16;57.44;99491.84;4346100;32;33218;-85
2022/02/02 20:17:38;;;;;;;8.70;1.70;;;;;;;6.58;56.47;99489.66;4346477;32;32657;-85
2022/02/02 20:20:16;;;;;;;2.92;1.08;;;;;;;6.72;55.64;99494.44;4336301;32;34602;-85
2022/02/02 20:22:44;;;;;;;7.30;1.40;;;;;;;6.78;55.41;99491.63;4333292;32;31300;-84
2022/02/02 20:25:13;;;;;;;13.07;2.10;;;;;;;6.53;56.08;99507.31;4332808;32;34731;-85
2022/02/02 20:27:41;;;;;;;7.28;1.40;;;;;;;6.74;55.40;99511.03;4347967;32;34757;-85
2022/02/02 20:30:10;;;;;;;4.55;1.50;;;;;;;6.80;54.92;99517.81;4352026;32;34060;-85
2022/02/02 20:32:38;;;;;;;4.32;1.05;;;;;;;6.54;55.60;99516.03;4338364;32;32122;-85
2022/02/02 20:35:06;;;;;;;6.82;1.30;;;;;;;6.28;56.40;99515.09;4334653;32;32960;-85
2022/02/02 20:37:34;;;;;;;3.00;0.90;;;;;;;6.70;54.99;99519.03;4320343;32;32207;-85
2022/02/02 20:40:06;;;;;;;1.55;0.77;;;;;;;6.53;55.64;99514.31;4332169;32;32507;-84
2022/02/02 21:04:21;;;;;;;3.30;1.62;;;;;;;6.56;54.53;99553.59;4324473;32;32035;-85
2022/02/02 21:14:57;;;;;;;2.80;1.00;;;;;;;6.09;55.86;99574.22;4337741;32;33632;-85
2022/02/02 21:17:27;;;;;;;4.35;1.10;;;;;;;6.20;55.51;99585.25;4340726;32;33619;-85
2022/02/02 21:20:02;;;;;;;3.62;1.25;;;;;;;6.33;54.95;99594.47;4321964;32;33095;-85
2022/02/02 21:22:34;;;;;;;1.00;0.77;;;;;;;6.47;54.78;99601.94;4331851;32;33188;-85
2022/02/02 21:25:30;;;;;;;1.45;0.47;;;;;;;6.53;54.44;99600.88;4353079;32;33280;-86
2022/02/02 21:27:56;;;;;;;4.40;0.77;;;;;;;6.37;54.81;99609.22;4361051;32;33931;-86
2022/02/02 21:30:25;;;;;;;;;;;;;;;6.57;54.10;99607.75;4356950;32;34442;-85
2022/02/02 21:32:53;;;;;;;3.87;0.68;;;;;;;6.37;54.79;99618.84;4362537;32;34002;-85
2022/02/02 21:35:21;;;;;;;3.28;0.62;;;;;;;6.28;55.31;99627.84;4339062;32;33148;-85
2022/02/02 21:37:52;;;;;;;1.62;0.93;;;;;;;5.82;56.45;99629.06;4349323;32;33595;-85
2022/02/02 21:40:25;;;;;;;3.80;0.80;;;;;;;6.04;56.06;99645.13;4336177;32;31394;-85
2022/02/02 21:42:57;;;;;;;2.85;0.62;;;;;;;6.43;54.76;99646.66;4348467;32;33781;-85
2022/02/02 21:45:27;;;;;;;4.22;0.90;;;;;;;6.09;55.95;99642.37;4337953;32;33962;-85
2022/02/02 21:47:56;;;;;;;5.25;1.83;;;;;;;6.25;55.21;99640.16;4336995;32;34076;-85
2022/02/02 21:50:25;;;;;;;1.60;0.70;;;;;;;6.46;54.65;99646.53;4343102;32;32973;-85
2022/02/02 21:52:53;;;;;;;3.85;1.10;;;;;;;6.02;55.96;99661.78;4357474;32;33077;-84
2022/02/02 21:55:20;;;;;;;4.65;0.70;;;;;;;6.11;55.57;99656.28;4370788;32;33788;-83
2022/02/02 21:57:50;;;;;;;5.53;1.00;;;;;;;6.55;54.37;99662.00;4345453;32;34124;-83
2022/02/02 22:00:18;;;;;;;1.02;0.60;;;;;;;6.55;53.95;99652.41;4344815;32;33202;-83
2022/02/02 22:02:47;;;;;;;4.25;0.60;;;;;;;6.37;54.41;99651.16;4361411;32;33309;-83
2022/02/02 22:05:15;;;;;;;4.55;0.88;;;;;;;6.45;54.24;99655.31;4361902;32;33335;-83
2022/02/02 22:07:42;;;;;;;3.60;1.08;;;;;;;6.46;54.35;99670.16;4344245;32;33301;-83
2022/02/02 22:10:10;;;;;;;7.05;0.85;;;;;;;6.55;53.83;99651.53;4359371;32;33365;-83
2022/02/02 22:12:39;;;;;;;4.50;1.20;;;;;;;6.56;53.68;99658.50;4347395;32;32471;-83
2022/02/02 22:15:11;;;;;;;4.72;1.30;;;;;;;6.17;54.85;99674.47;4360048;32;33801;-83
2022/02/02 22:17:45;;;;;;;2.70;0.57;;;;;;;6.36;54.41;99677.41;4343022;32;33247;-83
2022/02/02 22:20:16;;;;;;;5.68;1.00;;;;;;;6.06;54.99;99684.38;4359050;32;33702;-84
2022/02/02 22:22:46;;;;;;;3.22;0.70;;;;;;;6.03;55.19;99680.09;4350709;32;33245;-84
2022/02/02 22:25:15;;;;;;;3.65;0.62;;;;;;;6.03;55.26;99684.47;4359338;32;33326;-82
2022/02/02 22:27:43;;;;;;;2.85;0.77;;;;;;;6.12;55.08;99694.69;4361347;32;33457;-83
2022/02/02 22:30:12;;;;;;;8.40;0.70;;;;;;;5.89;55.53;99692.69;4334573;32;32565;-82
2022/02/02 22:32:39;;;;;;;3.80;0.70;;;;;;;5.97;55.14;99705.59;4350686;32;33193;-82
2022/02/02 22:35:08;;;;;;;2.17;1.10;;;;;;;6.03;55.13;99710.66;4354226;32;32916;-83
2022/02/02 22:37:36;;;;;;;3.33;0.75;;;;;;;5.79;55.59;99715.66;4361944;32;34254;-83
2022/02/02 22:40:04;;;;;;;2.03;0.95;;;;;;;5.96;55.00;99723.09;4348326;32;34547;-83
2022/02/02 22:42:33;;;;;;;5.72;1.08;;;;;;;5.87;55.29;99726.78;4356357;32;34059;-82
2022/02/02 22:45:04;;;;;;;5.53;1.52;;;;;;;5.86;54.95;99706.72;4361547;32;32090;-82
2022/02/02 22:47:32;;;;;;;4.62;0.75;;;;;;;5.94;55.09;99730.16;4346113;32;32808;-82
2022/02/02 22:50:03;;;;;;;2.28;0.80;;;;;;;5.98;54.76;99734.41;4363146;32;33149;-82
2022/02/02 22:52:31;;;;;;;3.22;0.90;;;;;;;5.92;54.95;99745.03;4348726;32;32296;-82
2022/02/02 22:54:58;;;;;;;6.60;1.15;;;;;;;5.94;54.79;99750.25;4344639;32;32916;-82
2022/02/02 22:57:26;;;;;;;2.28;0.73;;;;;;;5.88;55.30;99754.69;4369512;32;33765;-82
2022/02/02 22:59:55;;;;;;;2.20;0.80;;;;;;;5.98;54.56;99752.75;4351442;32;33468;-82